sensor_id;sensor_type;location;lat;lon;timestamp;temperature;humidity
59660;DHT22;45534;52.690;6.268;2023-12-07T00:00:59;0.30;99.90
59660;DHT22;45534;52.690;6.268;2023-12-07T00:03:25;0.30;99.90
59660;DHT22;45534;52.690;6.268;2023-12-07T00:05:50;0.20;99.90
59660;DHT22;45534;52.690;6.268;2023-12-07T00:08:16;0.20;99.90
59660;DHT22;45534;52.690;6.268;2023-12-07T00:10:42;0.10;99.90
59660;DHT22;45534;52.690;6.268;2023-12-07T00:13:07;0.10;99.90
59660;DHT22;45534;52.690;6.268;2023-12-07T00:15:33;0.10;99.90
59660;DHT22;45534;52.690;6.268;2023-12-07T00:17:59;0.10;99.90
59660;DHT22;45534;52.690;6.268;2023-12-07T00:20:26;0.10;99.90
59660;DHT22;45534;52.690;6.268;2023-12-07T00:22:51;0.10;99.90
59660;DHT22;45534;52.690;6.268;2023-12-07T00:25:17;0.00;99.90
59660;DHT22;45534;52.690;6.268;2023-12-07T00:27:42;0.00;99.90
59660;DHT22;45534;52.690;6.268;2023-12-07T00:30:08;0.00;99.90
59660;DHT22;45534;52.690;6.268;2023-12-07T00:32:34;0.00;99.90
59660;DHT22;45534;52.690;6.268;2023-12-07T00:35:00;0.10;99.90
59660;DHT22;45534;52.690;6.268;2023-12-07T00:37:26;0.10;99.90
59660;DHT22;45534;52.690;6.268;2023-12-07T00:39:54;0.10;99.90
59660;DHT22;45534;52.690;6.268;2023-12-07T00:42:20;0.10;99.90
59660;DHT22;45534;52.690;6.268;2023-12-07T00:44:45;0.00;99.90
59660;DHT22;45534;52.690;6.268;2023-12-07T00:47:11;0.10;99.90
59660;DHT22;45534;52.690;6.268;2023-12-07T00:49:40;0.00;99.90
59660;DHT22;45534;52.690;6.268;2023-12-07T00:52:06;0.10;99.90
59660;DHT22;45534;52.690;6.268;2023-12-07T00:54:32;0.10;99.90
59660;DHT22;45534;52.690;6.268;2023-12-07T00:56:58;0.10;99.90
59660;DHT22;45534;52.690;6.268;2023-12-07T00:59:23;0.10;99.90
59660;DHT22;45534;52.690;6.268;2023-12-07T01:01:50;0.10;99.90
59660;DHT22;45534;52.690;6.268;2023-12-07T01:04:16;0.10;99.90
59660;DHT22;45534;52.690;6.268;2023-12-07T01:06:42;0.20;99.90
59660;DHT22;45534;52.690;6.268;2023-12-07T01:09:08;0.10;99.90
59660;DHT22;45534;52.690;6.268;2023-12-07T01:11:39;0.20;99.90
59660;DHT22;45534;52.690;6.268;2023-12-07T01:14:07;0.10;99.90
59660;DHT22;45534;52.690;6.268;2023-12-07T01:16:33;0.10;99.90
59660;DHT22;45534;52.690;6.268;2023-12-07T01:18:58;0.10;99.90
59660;DHT22;45534;52.690;6.268;2023-12-07T01:21:24;0.10;99.90
59660;DHT22;45534;52.690;6.268;2023-12-07T01:23:50;0.10;99.90
59660;DHT22;45534;52.690;6.268;2023-12-07T01:26:15;0.10;99.90
59660;DHT22;45534;52.690;6.268;2023-12-07T01:28:41;0.20;99.90
59660;DHT22;45534;52.690;6.268;2023-12-07T01:31:07;0.20;99.90
59660;DHT22;45534;52.690;6.268;2023-12-07T01:33:32;0.20;99.90
59660;DHT22;45534;52.690;6.268;2023-12-07T01:35:58;0.20;99.90
59660;DHT22;45534;52.690;6.268;2023-12-07T01:38:23;0.20;99.90
59660;DHT22;45534;52.690;6.268;2023-12-07T01:40:49;0.20;99.90
59660;DHT22;45534;52.690;6.268;2023-12-07T01:43:15;0.30;99.90
59660;DHT22;45534;52.690;6.268;2023-12-07T01:45:40;0.30;99.90
59660;DHT22;45534;52.690;6.268;2023-12-07T01:48:06;0.20;99.90
59660;DHT22;45534;52.690;6.268;2023-12-07T01:50:33;0.20;99.90
59660;DHT22;45534;52.690;6.268;2023-12-07T01:53:02;0.20;99.90
59660;DHT22;45534;52.690;6.268;2023-12-07T01:55:30;0.20;99.90
59660;DHT22;45534;52.690;6.268;2023-12-07T01:57:57;0.20;99.90
59660;DHT22;45534;52.690;6.268;2023-12-07T02:00:22;0.20;99.90
59660;DHT22;45534;52.690;6.268;2023-12-07T02:02:50;0.20;99.90
59660;DHT22;45534;52.690;6.268;2023-12-07T02:05:16;0.10;99.90
59660;DHT22;45534;52.690;6.268;2023-12-07T02:07:42;0.00;99.90
59660;DHT22;45534;52.690;6.268;2023-12-07T02:10:10;0.00;99.90
59660;DHT22;45534;52.690;6.268;2023-12-07T02:12:36;0.00;99.90
59660;DHT22;45534;52.690;6.268;2023-12-07T02:15:02;0.00;99.90
59660;DHT22;45534;52.690;6.268;2023-12-07T02:20:11;-0.10;99.90
59660;DHT22;45534;52.690;6.268;2023-12-07T02:22:48;-0.10;99.90
59660;DHT22;45534;52.690;6.268;2023-12-07T02:25:18;-0.10;99.90
59660;DHT22;45534;52.690;6.268;2023-12-07T02:27:45;-0.20;99.90
59660;DHT22;45534;52.690;6.268;2023-12-07T02:30:11;-0.20;99.90
59660;DHT22;45534;52.690;6.268;2023-12-07T02:32:38;-0.20;99.90
59660;DHT22;45534;52.690;6.268;2023-12-07T02:35:06;-0.20;99.90
59660;DHT22;45534;52.690;6.268;2023-12-07T02:37:51;-0.20;99.90
59660;DHT22;45534;52.690;6.268;2023-12-07T02:40:21;-0.20;99.90
59660;DHT22;45534;52.690;6.268;2023-12-07T02:42:48;-0.10;99.90
59660;DHT22;45534;52.690;6.268;2023-12-07T02:45:15;-0.10;99.90
59660;DHT22;45534;52.690;6.268;2023-12-07T02:47:41;-0.10;99.90
59660;DHT22;45534;52.690;6.268;2023-12-07T02:50:09;-0.20;99.90
59660;DHT22;45534;52.690;6.268;2023-12-07T02:52:35;-0.20;99.90
59660;DHT22;45534;52.690;6.268;2023-12-07T02:55:01;-0.10;99.90
59660;DHT22;45534;52.690;6.268;2023-12-07T02:57:28;-0.10;99.90
59660;DHT22;45534;52.690;6.268;2023-12-07T02:59:55;-0.10;99.90
59660;DHT22;45534;52.690;6.268;2023-12-07T03:02:21;-0.10;99.90
59660;DHT22;45534;52.690;6.268;2023-12-07T03:04:46;-0.10;99.90
59660;DHT22;45534;52.690;6.268;2023-12-07T03:07:12;-0.10;99.90
59660;DHT22;45534;52.690;6.268;2023-12-07T03:09:38;-0.10;99.90
59660;DHT22;45534;52.690;6.268;2023-12-07T03:12:04;-0.10;99.90
59660;DHT22;45534;52.690;6.268;2023-12-07T03:14:30;-0.20;99.90
59660;DHT22;45534;52.690;6.268;2023-12-07T03:16:55;-0.20;99.90
59660;DHT22;45534;52.690;6.268;2023-12-07T03:19:21;-0.20;99.90
59660;DHT22;45534;52.690;6.268;2023-12-07T03:21:47;-0.20;99.90
59660;DHT22;45534;52.690;6.268;2023-12-07T03:24:12;-0.30;99.90
59660;DHT22;45534;52.690;6.268;2023-12-07T03:26:38;-0.40;99.90
59660;DHT22;45534;52.690;6.268;2023-12-07T03:29:04;-0.40;99.90
59660;DHT22;45534;52.690;6.268;2023-12-07T03:31:30;-0.50;99.90
59660;DHT22;45534;52.690;6.268;2023-12-07T03:33:56;-0.50;99.90
59660;DHT22;45534;52.690;6.268;2023-12-07T03:36:22;-0.50;99.90
59660;DHT22;45534;52.690;6.268;2023-12-07T03:38:49;-0.50;99.90
59660;DHT22;45534;52.690;6.268;2023-12-07T03:41:15;-0.50;99.90
59660;DHT22;45534;52.690;6.268;2023-12-07T03:43:40;-0.50;99.90
59660;DHT22;45534;52.690;6.268;2023-12-07T03:46:07;-0.60;99.90
59660;DHT22;45534;52.690;6.268;2023-12-07T03:48:33;-0.50;99.90
59660;DHT22;45534;52.690;6.268;2023-12-07T03:50:58;-0.50;99.90
59660;DHT22;45534;52.690;6.268;2023-12-07T03:53:24;-0.50;99.90
59660;DHT22;45534;52.690;6.268;2023-12-07T03:55:50;-0.50;99.90
59660;DHT22;45534;52.690;6.268;2023-12-07T03:58:16;-0.60;99.90
59660;DHT22;45534;52.690;6.268;2023-12-07T04:00:42;-0.50;99.90
59660;DHT22;45534;52.690;6.268;2023-12-07T04:03:08;-0.60;99.90
59660;DHT22;45534;52.690;6.268;2023-12-07T04:05:33;-0.50;99.90
59660;DHT22;45534;52.690;6.268;2023-12-07T04:07:59;-0.50;99.90
59660;DHT22;45534;52.690;6.268;2023-12-07T04:10:25;-0.50;99.90
59660;DHT22;45534;52.690;6.268;2023-12-07T04:12:51;-0.50;99.90
59660;DHT22;45534;52.690;6.268;2023-12-07T04:15:18;-0.40;99.90
59660;DHT22;45534;52.690;6.268;2023-12-07T04:17:45;-0.40;99.90
59660;DHT22;45534;52.690;6.268;2023-12-07T04:20:11;-0.40;99.90
59660;DHT22;45534;52.690;6.268;2023-12-07T04:22:39;-0.30;99.90
59660;DHT22;45534;52.690;6.268;2023-12-07T04:25:05;-0.30;99.90
59660;DHT22;45534;52.690;6.268;2023-12-07T04:27:32;-0.30;99.90
59660;DHT22;45534;52.690;6.268;2023-12-07T04:29:58;-0.30;99.90
59660;DHT22;45534;52.690;6.268;2023-12-07T04:32:24;-0.30;99.90
59660;DHT22;45534;52.690;6.268;2023-12-07T04:34:50;-0.20;99.90
59660;DHT22;45534;52.690;6.268;2023-12-07T04:37:15;-0.20;99.90
59660;DHT22;45534;52.690;6.268;2023-12-07T04:39:41;-0.20;99.90
59660;DHT22;45534;52.690;6.268;2023-12-07T04:42:07;-0.20;99.90
59660;DHT22;45534;52.690;6.268;2023-12-07T04:44:32;-0.20;99.90
59660;DHT22;45534;52.690;6.268;2023-12-07T04:46:58;-0.20;99.90
59660;DHT22;45534;52.690;6.268;2023-12-07T04:49:24;-0.10;99.90
59660;DHT22;45534;52.690;6.268;2023-12-07T04:51:49;0.00;99.90
59660;DHT22;45534;52.690;6.268;2023-12-07T04:54:15;0.00;99.90
59660;DHT22;45534;52.690;6.268;2023-12-07T04:56:41;0.00;99.90
59660;DHT22;45534;52.690;6.268;2023-12-07T04:59:08;0.00;99.90
59660;DHT22;45534;52.690;6.268;2023-12-07T05:01:35;0.10;99.90
59660;DHT22;45534;52.690;6.268;2023-12-07T05:04:01;0.10;99.90
59660;DHT22;45534;52.690;6.268;2023-12-07T05:06:29;0.20;99.90
59660;DHT22;45534;52.690;6.268;2023-12-07T05:08:55;0.20;99.90
59660;DHT22;45534;52.690;6.268;2023-12-07T05:11:21;0.20;99.90
59660;DHT22;45534;52.690;6.268;2023-12-07T05:13:46;0.20;99.90
59660;DHT22;45534;52.690;6.268;2023-12-07T05:16:14;0.20;99.90
59660;DHT22;45534;52.690;6.268;2023-12-07T05:18:40;0.20;99.90
59660;DHT22;45534;52.690;6.268;2023-12-07T05:21:06;0.20;99.90
59660;DHT22;45534;52.690;6.268;2023-12-07T05:23:32;0.20;99.90
59660;DHT22;45534;52.690;6.268;2023-12-07T05:25:59;0.20;99.90
59660;DHT22;45534;52.690;6.268;2023-12-07T05:28:26;0.20;99.90
59660;DHT22;45534;52.690;6.268;2023-12-07T05:30:52;0.20;99.90
59660;DHT22;45534;52.690;6.268;2023-12-07T05:33:18;0.20;99.90
59660;DHT22;45534;52.690;6.268;2023-12-07T05:35:45;0.10;99.90
59660;DHT22;45534;52.690;6.268;2023-12-07T05:38:11;0.10;99.90
59660;DHT22;45534;52.690;6.268;2023-12-07T05:40:37;0.10;99.90
59660;DHT22;45534;52.690;6.268;2023-12-07T05:43:03;0.10;99.90
59660;DHT22;45534;52.690;6.268;2023-12-07T05:45:29;0.00;99.90
59660;DHT22;45534;52.690;6.268;2023-12-07T05:47:55;0.00;99.90
59660;DHT22;45534;52.690;6.268;2023-12-07T05:50:21;0.00;99.90
59660;DHT22;45534;52.690;6.268;2023-12-07T05:52:47;-0.10;99.90
59660;DHT22;45534;52.690;6.268;2023-12-07T05:55:13;-0.10;99.90
59660;DHT22;45534;52.690;6.268;2023-12-07T05:57:39;-0.10;99.90
59660;DHT22;45534;52.690;6.268;2023-12-07T06:00:06;-0.20;99.90
59660;DHT22;45534;52.690;6.268;2023-12-07T06:02:35;-0.20;99.90
59660;DHT22;45534;52.690;6.268;2023-12-07T06:05:04;-0.30;99.90
59660;DHT22;45534;52.690;6.268;2023-12-07T06:07:30;-0.30;99.90
59660;DHT22;45534;52.690;6.268;2023-12-07T06:09:56;-0.30;99.90
59660;DHT22;45534;52.690;6.268;2023-12-07T06:12:22;-0.40;99.90
59660;DHT22;45534;52.690;6.268;2023-12-07T06:14:50;-0.40;99.90
59660;DHT22;45534;52.690;6.268;2023-12-07T06:17:16;-0.40;99.90
59660;DHT22;45534;52.690;6.268;2023-12-07T06:19:42;-0.50;99.90
59660;DHT22;45534;52.690;6.268;2023-12-07T06:22:08;-0.50;99.90
59660;DHT22;45534;52.690;6.268;2023-12-07T06:24:34;-0.50;99.90
59660;DHT22;45534;52.690;6.268;2023-12-07T06:26:59;-0.50;99.90
59660;DHT22;45534;52.690;6.268;2023-12-07T06:29:27;-0.50;99.90
59660;DHT22;45534;52.690;6.268;2023-12-07T06:31:52;-0.60;99.90
59660;DHT22;45534;52.690;6.268;2023-12-07T06:34:18;-0.60;99.90
59660;DHT22;45534;52.690;6.268;2023-12-07T06:36:45;-0.60;99.90
59660;DHT22;45534;52.690;6.268;2023-12-07T06:39:10;-0.70;99.90
59660;DHT22;45534;52.690;6.268;2023-12-07T06:41:36;-0.70;99.90
59660;DHT22;45534;52.690;6.268;2023-12-07T06:44:02;-0.80;99.90
59660;DHT22;45534;52.690;6.268;2023-12-07T06:46:27;-0.80;99.90
59660;DHT22;45534;52.690;6.268;2023-12-07T06:48:54;-0.80;99.90
59660;DHT22;45534;52.690;6.268;2023-12-07T06:51:19;-0.90;99.90
59660;DHT22;45534;52.690;6.268;2023-12-07T06:53:45;-0.90;99.90
59660;DHT22;45534;52.690;6.268;2023-12-07T06:56:11;-0.90;99.90
59660;DHT22;45534;52.690;6.268;2023-12-07T06:58:36;-1.00;99.90
59660;DHT22;45534;52.690;6.268;2023-12-07T07:01:02;-1.00;99.90
59660;DHT22;45534;52.690;6.268;2023-12-07T07:03:28;-1.10;99.90
59660;DHT22;45534;52.690;6.268;2023-12-07T07:05:54;-1.00;99.90
59660;DHT22;45534;52.690;6.268;2023-12-07T07:08:20;-1.10;99.90
59660;DHT22;45534;52.690;6.268;2023-12-07T07:10:46;-1.10;99.90
59660;DHT22;45534;52.690;6.268;2023-12-07T07:13:14;-1.10;99.90
59660;DHT22;45534;52.690;6.268;2023-12-07T07:15:45;-1.10;99.90
59660;DHT22;45534;52.690;6.268;2023-12-07T07:18:10;-1.10;99.90
59660;DHT22;45534;52.690;6.268;2023-12-07T07:20:36;-1.10;99.90
59660;DHT22;45534;52.690;6.268;2023-12-07T07:23:02;-1.10;99.90
59660;DHT22;45534;52.690;6.268;2023-12-07T07:25:27;-1.10;99.90
59660;DHT22;45534;52.690;6.268;2023-12-07T07:27:53;-1.10;99.90
59660;DHT22;45534;52.690;6.268;2023-12-07T07:30:20;-1.10;99.90
59660;DHT22;45534;52.690;6.268;2023-12-07T07:32:46;-1.10;99.90
59660;DHT22;45534;52.690;6.268;2023-12-07T07:35:12;-1.00;99.90
59660;DHT22;45534;52.690;6.268;2023-12-07T07:37:39;-1.00;99.90
59660;DHT22;45534;52.690;6.268;2023-12-07T07:40:05;-1.10;99.90
59660;DHT22;45534;52.690;6.268;2023-12-07T07:42:35;-1.00;99.90
59660;DHT22;45534;52.690;6.268;2023-12-07T07:45:00;-1.00;99.90
59660;DHT22;45534;52.690;6.268;2023-12-07T07:47:26;-1.00;99.90
59660;DHT22;45534;52.690;6.268;2023-12-07T07:49:51;-1.00;99.90
59660;DHT22;45534;52.690;6.268;2023-12-07T07:52:18;-1.00;99.90
59660;DHT22;45534;52.690;6.268;2023-12-07T07:54:44;-1.00;99.90
59660;DHT22;45534;52.690;6.268;2023-12-07T07:57:10;-1.00;99.90
59660;DHT22;45534;52.690;6.268;2023-12-07T07:59:36;-1.00;99.90
59660;DHT22;45534;52.690;6.268;2023-12-07T08:02:01;-1.00;99.90
59660;DHT22;45534;52.690;6.268;2023-12-07T08:04:28;-0.90;99.90
59660;DHT22;45534;52.690;6.268;2023-12-07T08:06:53;-0.90;99.90
59660;DHT22;45534;52.690;6.268;2023-12-07T08:09:19;-0.80;99.90
59660;DHT22;45534;52.690;6.268;2023-12-07T08:11:45;-0.80;99.90
59660;DHT22;45534;52.690;6.268;2023-12-07T08:14:10;-0.80;99.90
59660;DHT22;45534;52.690;6.268;2023-12-07T08:16:36;-0.80;99.90
59660;DHT22;45534;52.690;6.268;2023-12-07T08:19:02;-0.80;99.90
59660;DHT22;45534;52.690;6.268;2023-12-07T08:21:27;-0.80;99.90
59660;DHT22;45534;52.690;6.268;2023-12-07T08:23:55;-0.80;99.90
59660;DHT22;45534;52.690;6.268;2023-12-07T08:26:21;-0.80;99.90
59660;DHT22;45534;52.690;6.268;2023-12-07T08:28:47;-0.80;99.90
59660;DHT22;45534;52.690;6.268;2023-12-07T08:31:13;-0.70;99.90
59660;DHT22;45534;52.690;6.268;2023-12-07T08:33:39;-0.70;99.90
59660;DHT22;45534;52.690;6.268;2023-12-07T08:36:05;-0.70;99.90
59660;DHT22;45534;52.690;6.268;2023-12-07T08:38:31;-0.60;99.90
59660;DHT22;45534;52.690;6.268;2023-12-07T08:40:57;-0.60;99.90
59660;DHT22;45534;52.690;6.268;2023-12-07T08:43:23;-0.50;99.90
59660;DHT22;45534;52.690;6.268;2023-12-07T08:45:52;-0.40;99.90
59660;DHT22;45534;52.690;6.268;2023-12-07T08:48:19;-0.30;99.90
59660;DHT22;45534;52.690;6.268;2023-12-07T08:50:46;-0.20;99.90
59660;DHT22;45534;52.690;6.268;2023-12-07T08:53:11;-0.20;99.90
59660;DHT22;45534;52.690;6.268;2023-12-07T08:55:37;-0.10;99.90
59660;DHT22;45534;52.690;6.268;2023-12-07T08:58:03;-0.10;99.90
59660;DHT22;45534;52.690;6.268;2023-12-07T09:00:32;0.00;99.90
59660;DHT22;45534;52.690;6.268;2023-12-07T09:02:58;0.00;99.90
59660;DHT22;45534;52.690;6.268;2023-12-07T09:05:26;0.00;99.90
59660;DHT22;45534;52.690;6.268;2023-12-07T09:07:52;0.00;99.90
59660;DHT22;45534;52.690;6.268;2023-12-07T09:10:18;0.10;99.90
59660;DHT22;45534;52.690;6.268;2023-12-07T09:12:44;0.00;99.90
59660;DHT22;45534;52.690;6.268;2023-12-07T09:15:10;0.00;99.90
59660;DHT22;45534;52.690;6.268;2023-12-07T09:17:38;0.00;99.90
59660;DHT22;45534;52.690;6.268;2023-12-07T09:20:08;0.00;99.90
59660;DHT22;45534;52.690;6.268;2023-12-07T09:22:44;0.00;99.90
59660;DHT22;45534;52.690;6.268;2023-12-07T09:25:10;0.00;99.90
59660;DHT22;45534;52.690;6.268;2023-12-07T09:27:38;0.00;99.90
59660;DHT22;45534;52.690;6.268;2023-12-07T09:30:07;0.00;99.90
59660;DHT22;45534;52.690;6.268;2023-12-07T09:32:37;0.10;99.90
59660;DHT22;45534;52.690;6.268;2023-12-07T09:35:07;0.00;99.90
59660;DHT22;45534;52.690;6.268;2023-12-07T09:37:33;0.10;99.90
59660;DHT22;45534;52.690;6.268;2023-12-07T09:39:59;0.10;99.90
59660;DHT22;45534;52.690;6.268;2023-12-07T09:42:25;0.10;99.90
59660;DHT22;45534;52.690;6.268;2023-12-07T09:44:51;0.10;99.90
59660;DHT22;45534;52.690;6.268;2023-12-07T09:47:17;0.10;99.90
59660;DHT22;45534;52.690;6.268;2023-12-07T09:49:43;0.10;99.90
59660;DHT22;45534;52.690;6.268;2023-12-07T09:52:10;0.10;99.90
59660;DHT22;45534;52.690;6.268;2023-12-07T09:54:41;0.10;99.90
59660;DHT22;45534;52.690;6.268;2023-12-07T09:57:07;0.10;99.90
59660;DHT22;45534;52.690;6.268;2023-12-07T09:59:35;0.10;99.90
59660;DHT22;45534;52.690;6.268;2023-12-07T10:02:02;0.10;99.90
59660;DHT22;45534;52.690;6.268;2023-12-07T10:04:27;0.20;99.90
59660;DHT22;45534;52.690;6.268;2023-12-07T10:06:53;0.20;99.90
59660;DHT22;45534;52.690;6.268;2023-12-07T10:09:20;0.20;99.90
59660;DHT22;45534;52.690;6.268;2023-12-07T10:11:47;0.20;99.90
59660;DHT22;45534;52.690;6.268;2023-12-07T10:14:14;0.20;99.90
59660;DHT22;45534;52.690;6.268;2023-12-07T10:16:52;0.20;99.90
59660;DHT22;45534;52.690;6.268;2023-12-07T10:19:20;0.30;99.90
59660;DHT22;45534;52.690;6.268;2023-12-07T10:21:53;0.30;99.90
59660;DHT22;45534;52.690;6.268;2023-12-07T10:24:24;0.30;99.90
59660;DHT22;45534;52.690;6.268;2023-12-07T10:26:52;0.30;99.90
59660;DHT22;45534;52.690;6.268;2023-12-07T10:29:18;0.40;99.90
59660;DHT22;45534;52.690;6.268;2023-12-07T10:31:49;0.40;99.90
59660;DHT22;45534;52.690;6.268;2023-12-07T10:34:18;0.40;99.90
59660;DHT22;45534;52.690;6.268;2023-12-07T10:36:46;0.40;99.90
59660;DHT22;45534;52.690;6.268;2023-12-07T10:39:13;0.40;99.90
59660;DHT22;45534;52.690;6.268;2023-12-07T10:41:42;0.40;99.90
59660;DHT22;45534;52.690;6.268;2023-12-07T10:44:13;0.40;99.90
59660;DHT22;45534;52.690;6.268;2023-12-07T10:46:39;0.50;99.90
59660;DHT22;45534;52.690;6.268;2023-12-07T10:49:12;0.50;99.90
59660;DHT22;45534;52.690;6.268;2023-12-07T10:51:45;0.50;99.90
59660;DHT22;45534;52.690;6.268;2023-12-07T10:54:16;0.50;99.90
59660;DHT22;45534;52.690;6.268;2023-12-07T10:56:45;0.50;99.90
59660;DHT22;45534;52.690;6.268;2023-12-07T10:59:13;0.50;99.90
59660;DHT22;45534;52.690;6.268;2023-12-07T11:01:42;0.50;99.90
59660;DHT22;45534;52.690;6.268;2023-12-07T11:04:12;0.50;99.90
59660;DHT22;45534;52.690;6.268;2023-12-07T11:06:43;0.50;99.90
59660;DHT22;45534;52.690;6.268;2023-12-07T11:09:14;0.50;99.90
59660;DHT22;45534;52.690;6.268;2023-12-07T11:11:52;0.50;99.90
59660;DHT22;45534;52.690;6.268;2023-12-07T11:14:20;0.50;99.90
59660;DHT22;45534;52.690;6.268;2023-12-07T11:16:47;0.50;99.90
59660;DHT22;45534;52.690;6.268;2023-12-07T11:19:46;0.50;99.90
59660;DHT22;45534;52.690;6.268;2023-12-07T11:22:12;0.50;99.90
59660;DHT22;45534;52.690;6.268;2023-12-07T11:24:55;0.50;99.90
59660;DHT22;45534;52.690;6.268;2023-12-07T11:27:24;0.60;99.90
59660;DHT22;45534;52.690;6.268;2023-12-07T11:29:51;0.60;99.90
59660;DHT22;45534;52.690;6.268;2023-12-07T11:32:17;0.60;99.90
59660;DHT22;45534;52.690;6.268;2023-12-07T11:34:43;0.60;99.90
59660;DHT22;45534;52.690;6.268;2023-12-07T11:37:11;0.60;99.90
59660;DHT22;45534;52.690;6.268;2023-12-07T11:39:40;0.70;99.90
59660;DHT22;45534;52.690;6.268;2023-12-07T11:42:17;0.70;99.90
59660;DHT22;45534;52.690;6.268;2023-12-07T11:44:44;0.70;99.90
59660;DHT22;45534;52.690;6.268;2023-12-07T11:47:20;0.70;99.90
59660;DHT22;45534;52.690;6.268;2023-12-07T11:49:48;0.80;99.90
59660;DHT22;45534;52.690;6.268;2023-12-07T11:52:19;0.80;99.90
59660;DHT22;45534;52.690;6.268;2023-12-07T11:54:46;0.80;99.90
59660;DHT22;45534;52.690;6.268;2023-12-07T11:57:13;0.80;99.90
59660;DHT22;45534;52.690;6.268;2023-12-07T11:59:38;0.80;99.90
59660;DHT22;45534;52.690;6.268;2023-12-07T12:02:07;0.80;99.90
59660;DHT22;45534;52.690;6.268;2023-12-07T12:04:33;0.80;99.90
59660;DHT22;45534;52.690;6.268;2023-12-07T12:06:58;0.90;99.90
59660;DHT22;45534;52.690;6.268;2023-12-07T12:09:25;0.90;99.90
59660;DHT22;45534;52.690;6.268;2023-12-07T12:11:50;0.80;99.90
59660;DHT22;45534;52.690;6.268;2023-12-07T12:14:17;0.90;99.90
59660;DHT22;45534;52.690;6.268;2023-12-07T12:16:43;0.90;99.90
59660;DHT22;45534;52.690;6.268;2023-12-07T12:19:10;0.90;99.90
59660;DHT22;45534;52.690;6.268;2023-12-07T12:21:36;0.90;99.90
59660;DHT22;45534;52.690;6.268;2023-12-07T12:24:05;0.90;99.90
59660;DHT22;45534;52.690;6.268;2023-12-07T12:26:33;0.90;99.90
59660;DHT22;45534;52.690;6.268;2023-12-07T12:29:00;0.90;99.90
59660;DHT22;45534;52.690;6.268;2023-12-07T12:31:26;0.90;99.90
59660;DHT22;45534;52.690;6.268;2023-12-07T12:33:53;1.00;99.90
59660;DHT22;45534;52.690;6.268;2023-12-07T12:36:20;1.00;99.90
59660;DHT22;45534;52.690;6.268;2023-12-07T12:38:51;1.00;99.90
59660;DHT22;45534;52.690;6.268;2023-12-07T12:41:21;1.00;99.90
59660;DHT22;45534;52.690;6.268;2023-12-07T12:43:47;1.00;99.90
59660;DHT22;45534;52.690;6.268;2023-12-07T12:46:13;1.10;99.90
59660;DHT22;45534;52.690;6.268;2023-12-07T12:49:00;1.10;99.90
59660;DHT22;45534;52.690;6.268;2023-12-07T12:51:29;1.10;99.90
59660;DHT22;45534;52.690;6.268;2023-12-07T12:53:59;1.10;99.90
59660;DHT22;45534;52.690;6.268;2023-12-07T12:56:26;1.10;99.90
59660;DHT22;45534;52.690;6.268;2023-12-07T12:58:53;1.10;99.90
59660;DHT22;45534;52.690;6.268;2023-12-07T13:01:21;1.10;99.90
59660;DHT22;45534;52.690;6.268;2023-12-07T13:03:47;1.10;99.90
59660;DHT22;45534;52.690;6.268;2023-12-07T13:06:14;1.10;99.90
59660;DHT22;45534;52.690;6.268;2023-12-07T13:08:43;1.20;99.90
59660;DHT22;45534;52.690;6.268;2023-12-07T13:11:14;1.20;99.90
59660;DHT22;45534;52.690;6.268;2023-12-07T13:13:40;1.20;99.90
59660;DHT22;45534;52.690;6.268;2023-12-07T13:16:06;1.20;99.90
59660;DHT22;45534;52.690;6.268;2023-12-07T13:18:32;1.30;99.90
59660;DHT22;45534;52.690;6.268;2023-12-07T13:20:58;1.20;99.90
59660;DHT22;45534;52.690;6.268;2023-12-07T13:23:25;1.30;99.90
59660;DHT22;45534;52.690;6.268;2023-12-07T13:25:51;1.30;99.90
59660;DHT22;45534;52.690;6.268;2023-12-07T13:28:17;1.30;99.90
59660;DHT22;45534;52.690;6.268;2023-12-07T13:30:43;1.30;99.90
59660;DHT22;45534;52.690;6.268;2023-12-07T13:33:09;1.30;99.90
59660;DHT22;45534;52.690;6.268;2023-12-07T13:35:35;1.30;99.90
59660;DHT22;45534;52.690;6.268;2023-12-07T13:38:01;1.40;99.90
59660;DHT22;45534;52.690;6.268;2023-12-07T13:40:26;1.30;99.90
59660;DHT22;45534;52.690;6.268;2023-12-07T13:42:52;1.40;99.90
59660;DHT22;45534;52.690;6.268;2023-12-07T13:45:18;1.40;99.90
59660;DHT22;45534;52.690;6.268;2023-12-07T13:47:45;1.40;99.90
59660;DHT22;45534;52.690;6.268;2023-12-07T13:50:11;1.40;99.90
59660;DHT22;45534;52.690;6.268;2023-12-07T13:52:38;1.40;99.90
59660;DHT22;45534;52.690;6.268;2023-12-07T13:55:04;1.40;99.90
59660;DHT22;45534;52.690;6.268;2023-12-07T13:57:30;1.40;99.90
59660;DHT22;45534;52.690;6.268;2023-12-07T13:59:56;1.40;99.90
59660;DHT22;45534;52.690;6.268;2023-12-07T14:02:22;1.40;99.90
59660;DHT22;45534;52.690;6.268;2023-12-07T14:04:49;1.50;99.90
59660;DHT22;45534;52.690;6.268;2023-12-07T14:07:18;1.50;99.90
59660;DHT22;45534;52.690;6.268;2023-12-07T14:09:45;1.50;99.90
59660;DHT22;45534;52.690;6.268;2023-12-07T14:12:13;1.50;99.90
59660;DHT22;45534;52.690;6.268;2023-12-07T14:14:40;1.50;99.90
59660;DHT22;45534;52.690;6.268;2023-12-07T14:17:06;1.50;99.90
59660;DHT22;45534;52.690;6.268;2023-12-07T14:19:32;1.50;99.90
59660;DHT22;45534;52.690;6.268;2023-12-07T14:21:58;1.50;99.90
59660;DHT22;45534;52.690;6.268;2023-12-07T14:24:24;1.50;99.90
59660;DHT22;45534;52.690;6.268;2023-12-07T14:26:50;1.60;99.90
59660;DHT22;45534;52.690;6.268;2023-12-07T14:29:16;1.60;99.90
59660;DHT22;45534;52.690;6.268;2023-12-07T14:31:47;1.60;99.90
59660;DHT22;45534;52.690;6.268;2023-12-07T14:34:13;1.60;99.90
59660;DHT22;45534;52.690;6.268;2023-12-07T14:36:40;1.60;99.90
59660;DHT22;45534;52.690;6.268;2023-12-07T14:39:13;1.60;99.90
59660;DHT22;45534;52.690;6.268;2023-12-07T14:41:43;1.70;99.90
59660;DHT22;45534;52.690;6.268;2023-12-07T14:44:10;1.70;99.90
59660;DHT22;45534;52.690;6.268;2023-12-07T14:46:36;1.70;99.90
59660;DHT22;45534;52.690;6.268;2023-12-07T14:49:01;1.70;99.90
59660;DHT22;45534;52.690;6.268;2023-12-07T14:51:28;1.70;99.90
59660;DHT22;45534;52.690;6.268;2023-12-07T14:53:54;1.70;99.90
59660;DHT22;45534;52.690;6.268;2023-12-07T14:56:19;1.80;99.90
59660;DHT22;45534;52.690;6.268;2023-12-07T14:58:48;1.80;99.90
59660;DHT22;45534;52.690;6.268;2023-12-07T15:01:13;1.80;99.90
59660;DHT22;45534;52.690;6.268;2023-12-07T15:03:40;1.80;99.90
59660;DHT22;45534;52.690;6.268;2023-12-07T15:06:06;1.80;99.90
59660;DHT22;45534;52.690;6.268;2023-12-07T15:08:32;1.80;99.90
59660;DHT22;45534;52.690;6.268;2023-12-07T15:10:57;1.80;99.90
59660;DHT22;45534;52.690;6.268;2023-12-07T15:13:23;1.90;99.90
59660;DHT22;45534;52.690;6.268;2023-12-07T15:15:49;1.90;99.90
59660;DHT22;45534;52.690;6.268;2023-12-07T15:18:14;1.90;99.90
59660;DHT22;45534;52.690;6.268;2023-12-07T15:20:40;1.90;99.90
59660;DHT22;45534;52.690;6.268;2023-12-07T15:23:06;1.90;99.90
59660;DHT22;45534;52.690;6.268;2023-12-07T15:25:32;1.90;99.90
59660;DHT22;45534;52.690;6.268;2023-12-07T15:27:57;1.90;99.90
59660;DHT22;45534;52.690;6.268;2023-12-07T15:30:23;2.00;99.90
59660;DHT22;45534;52.690;6.268;2023-12-07T15:32:52;2.00;99.90
59660;DHT22;45534;52.690;6.268;2023-12-07T15:35:18;2.00;99.90
59660;DHT22;45534;52.690;6.268;2023-12-07T15:37:44;2.00;99.90
59660;DHT22;45534;52.690;6.268;2023-12-07T15:40:10;2.00;99.90